Time;durP1;ratioP1;P1;durP2;ratioP2;P2;SDS_P1;SDS_P2;PMS_P1;PMS_P2;Temp;Humidity;BMP_temperature;BMP_pressure;BME280_temperature;BME280_humidity;BME280_pressure;Samples;Min_cycle;Max_cycle;Signal;HPM_P1;HPM_P2
2022/01/09 00:01:44;;;;;;;;;;;20.00;41.20;;;;;;5117151;28;20018;-51
2022/01/09 00:04:11;;;;;;;;;;;20.00;41.20;;;;;;5093202;28;19928;-48
2022/01/09 00:06:38;;;;;;;;;;;20.00;41.20;;;;;;5097918;28;20117;-48
2022/01/09 00:09:06;;;;;;;;;;;20.00;41.20;;;;;;5092782;28;20341;-51
2022/01/09 00:11:35;;;;;;;;;;;20.00;41.20;;;;;;5096972;28;20377;-57
2022/01/09 00:14:02;;;;;;;;;;;20.00;41.20;;;;;;5096315;28;19931;-48
2022/01/09 00:16:28;;;;;;;;;;;20.00;41.20;;;;;;5116410;28;19928;-54
2022/01/09 00:18:55;;;;;;;;;;;20.00;41.20;;;;;;5095917;28;19996;-47
2022/01/09 00:21:22;;;;;;;;;;;20.00;41.80;;;;;;5100740;28;19938;-52
2022/01/09 00:23:49;;;;;;;;;;;20.00;41.20;;;;;;5095059;28;19928;-56
2022/01/09 00:26:15;;;;;;;;;;;20.00;41.20;;;;;;5093126;28;20422;-49
2022/01/09 00:28:44;;;;;;;;;;;20.00;41.20;;;;;;5095197;28;19924;-51
2022/01/09 00:31:11;;;;;;;;;;;20.00;41.20;;;;;;5109520;27;19979;-45
2022/01/09 00:33:37;;;;;;;;;;;20.00;41.20;;;;;;5082160;28;19991;-52
2022/01/09 00:36:05;;;;;;;;;;;20.00;41.20;;;;;;5094666;28;20053;-54
2022/01/09 00:38:32;;;;;;;;;;;20.00;41.20;;;;;;5089107;28;19958;-49
2022/01/09 00:40:59;;;;;;;;;;;20.00;41.20;;;;;;5096191;28;20048;-47
2022/01/09 00:43:26;;;;;;;;;;;20.00;41.20;;;;;;5095933;28;19927;-55
2022/01/09 00:45:55;;;;;;;;;;;20.00;41.20;;;;;;5115356;28;19932;-52
2022/01/09 00:48:22;;;;;;;;;;;20.00;41.20;;;;;;5097331;28;19970;-55
2022/01/09 00:50:48;;;;;;;;;;;20.00;41.20;;;;;;5111729;28;19932;-52
2022/01/09 00:53:15;;;;;;;;;;;20.00;41.20;;;;;;5092967;28;20389;-45
2022/01/09 00:55:42;;;;;;;;;;;20.00;41.20;;;;;;5097015;28;19923;-48
2022/01/09 00:58:10;;;;;;;;;;;20.00;41.20;;;;;;5095818;28;20392;-47
2022/01/09 01:00:39;;;;;;;;;;;20.00;41.20;;;;;;5100477;28;20034;-47
2022/01/09 01:03:07;;;;;;;;;;;20.00;41.20;;;;;;5095075;28;20415;-54
2022/01/09 01:05:34;;;;;;;;;;;20.00;41.20;;;;;;5115640;28;19976;-47
2022/01/09 01:08:04;;;;;;;;;;;20.00;41.10;;;;;;5095592;28;20429;-50
2022/01/09 01:10:34;;;;;;;;;;;20.00;41.10;;;;;;5089513;28;19924;-51
2022/01/09 01:13:02;;;;;;;;;;;20.00;41.10;;;;;;5095056;28;19923;-47
2022/01/09 01:15:29;;;;;;;;;;;20.00;41.10;;;;;;5095469;28;20201;-45
2022/01/09 01:17:56;;;;;;;;;;;20.00;41.10;;;;;;5092238;28;20019;-54
2022/01/09 01:20:24;;;;;;;;;;;20.00;41.20;;;;;;5096021;28;20551;-51
2022/01/09 01:22:52;;;;;;;;;;;20.00;41.10;;;;;;5097951;28;19923;-56
2022/01/09 01:25:18;;;;;;;;;;;20.00;41.10;;;;;;5109539;28;20317;-49
2022/01/09 01:27:45;;;;;;;;;;;20.00;41.10;;;;;;5098795;28;20292;-45
2022/01/09 01:30:12;;;;;;;;;;;20.00;41.10;;;;;;5095263;28;19928;-52
2022/01/09 01:32:39;;;;;;;;;;;20.00;41.10;;;;;;5112833;28;19928;-50
2022/01/09 01:35:06;;;;;;;;;;;20.00;41.10;;;;;;5092218;28;20001;-52
2022/01/09 01:37:41;;;;;;;;;;;20.00;41.10;;;;;;5111350;28;20434;-55
2022/01/09 01:40:08;;;;;;;;;;;20.00;41.10;;;;;;5095012;28;19936;-50
2022/01/09 01:42:38;;;;;;;;;;;20.00;41.00;;;;;;5097131;28;20269;-50
2022/01/09 01:45:06;;;;;;;;;;;20.00;41.10;;;;;;5091377;28;19924;-48
2022/01/09 01:47:35;;;;;;;;;;;20.00;41.00;;;;;;5112378;28;22222;-47
2022/01/09 01:50:05;;;;;;;;;;;20.00;41.00;;;;;;5112800;28;19951;-45
2022/01/09 01:52:36;;;;;;;;;;;20.00;41.00;;;;;;5093080;28;19944;-55
2022/01/09 01:55:05;;;;;;;;;;;20.00;41.00;;;;;;5095171;28;19930;-47
2022/01/09 01:57:33;;;;;;;;;;;20.00;41.00;;;;;;5094006;28;19960;-50
2022/01/09 02:00:05;;;;;;;;;;;20.00;41.10;;;;;;5094364;28;19938;-50
2022/01/09 02:02:32;;;;;;;;;;;20.00;41.00;;;;;;5109531;28;19935;-44
2022/01/09 02:04:59;;;;;;;;;;;20.00;41.00;;;;;;5094046;28;20022;-47
2022/01/09 02:07:26;;;;;;;;;;;20.00;41.00;;;;;;5094913;28;19931;-51
2022/01/09 02:09:53;;;;;;;;;;;20.00;41.00;;;;;;5110372;28;20456;-47
2022/01/09 02:12:22;;;;;;;;;;;20.00;41.00;;;;;;5111043;28;19928;-55
2022/01/09 02:14:48;;;;;;;;;;;20.00;41.00;;;;;;5109546;28;19924;-49
2022/01/09 02:17:16;;;;;;;;;;;20.00;41.00;;;;;;5094882;28;20166;-49
2022/01/09 02:19:50;;;;;;;;;;;20.00;41.00;;;;;;5091770;28;19935;-52
2022/01/09 02:22:18;;;;;;;;;;;20.00;41.00;;;;;;5094566;28;19985;-56
2022/01/09 02:24:47;;;;;;;;;;;20.00;41.00;;;;;;5084548;28;19927;-51
2022/01/09 02:27:15;;;;;;;;;;;20.00;41.00;;;;;;5098117;28;19935;-51
2022/01/09 02:29:42;;;;;;;;;;;20.00;41.00;;;;;;5096714;28;20553;-51
2022/01/09 02:32:09;;;;;;;;;;;20.00;40.90;;;;;;5112699;28;19923;-55
2022/01/09 02:34:35;;;;;;;;;;;20.00;41.00;;;;;;5113952;28;20327;-45
2022/01/09 02:37:02;;;;;;;;;;;20.00;41.00;;;;;;5095841;28;19935;-50
2022/01/09 02:39:30;;;;;;;;;;;20.00;41.00;;;;;;5106862;28;20022;-47
2022/01/09 02:41:57;;;;;;;;;;;20.00;40.90;;;;;;5113418;28;19928;-49
2022/01/09 02:44:24;;;;;;;;;;;20.00;41.00;;;;;;5087888;28;19928;-58
2022/01/09 02:47:05;;;;;;;;;;;20.00;40.90;;;;;;5094764;28;19935;-54
2022/01/09 02:49:33;;;;;;;;;;;20.00;40.90;;;;;;5123884;27;19934;-53
2022/01/09 02:52:04;;;;;;;;;;;20.00;40.90;;;;;;5113115;28;19930;-52
2022/01/09 02:57:17;;;;;;;;;;;20.00;40.90;;;;;;5097443;28;19935;-49
2022/01/09 02:59:44;;;;;;;;;;;20.00;40.90;;;;;;5099039;28;20002;-51
2022/01/09 03:02:11;;;;;;;;;;;20.00;40.90;;;;;;5095740;28;19934;-55
2022/01/09 03:04:38;;;;;;;;;;;20.00;40.90;;;;;;5099767;28;20014;-51
2022/01/09 03:07:05;;;;;;;;;;;20.00;40.90;;;;;;5098573;28;19980;-51
2022/01/09 03:09:33;;;;;;;;;;;20.00;40.90;;;;;;5096347;28;20770;-54
2022/01/09 03:12:00;;;;;;;;;;;20.00;40.90;;;;;;5095339;28;19923;-50
2022/01/09 03:14:27;;;;;;;;;;;20.00;40.90;;;;;;5097556;28;19955;-56
2022/01/09 03:16:53;;;;;;;;;;;20.00;40.90;;;;;;5120543;27;19924;-53
2022/01/09 03:19:20;;;;;;;;;;;20.00;40.90;;;;;;5097769;28;19923;-47
2022/01/09 03:21:47;;;;;;;;;;;20.00;40.90;;;;;;5112340;28;19946;-51
2022/01/09 03:24:14;;;;;;;;;;;20.00;40.90;;;;;;5096966;28;19923;-50
2022/01/09 03:26:43;;;;;;;;;;;20.00;40.90;;;;;;5096661;28;20402;-47
2022/01/09 03:29:10;;;;;;;;;;;20.00;40.90;;;;;;5098421;28;19995;-55
2022/01/09 03:31:37;;;;;;;;;;;20.00;40.90;;;;;;5098860;28;19934;-46
2022/01/09 03:34:03;;;;;;;;;;;20.00;40.90;;;;;;5101984;28;20387;-49
2022/01/09 03:36:30;;;;;;;;;;;20.00;40.80;;;;;;5116364;28;19977;-55
2022/01/09 03:38:58;;;;;;;;;;;20.00;40.80;;;;;;5115991;28;20450;-52
2022/01/09 03:41:26;;;;;;;;;;;20.00;40.80;;;;;;5097621;28;19928;-56
2022/01/09 03:43:55;;;;;;;;;;;20.00;40.90;;;;;;5094145;28;19973;-48
2022/01/09 03:46:21;;;;;;;;;;;20.00;40.80;;;;;;5098075;28;19923;-48
2022/01/09 03:48:48;;;;;;;;;;;20.00;40.90;;;;;;5099958;28;19967;-50
2022/01/09 03:51:15;;;;;;;;;;;20.00;40.80;;;;;;5098141;28;19924;-55
2022/01/09 03:53:41;;;;;;;;;;;20.00;40.80;;;;;;5090470;28;19967;-50
2022/01/09 03:56:08;;;;;;;;;;;20.00;40.80;;;;;;5097258;28;19927;-55
2022/01/09 03:58:36;;;;;;;;;;;20.00;40.80;;;;;;5097763;28;19951;-52
2022/01/09 04:01:06;;;;;;;;;;;20.00;40.80;;;;;;5115598;28;19934;-52
2022/01/09 04:03:33;;;;;;;;;;;20.00;40.80;;;;;;5116670;28;19987;-50
2022/01/09 04:06:01;;;;;;;;;;;20.00;40.80;;;;;;5097143;28;20396;-53
2022/01/09 04:08:28;;;;;;;;;;;20.00;40.80;;;;;;5117104;28;20265;-48
2022/01/09 04:10:56;;;;;;;;;;;20.00;40.80;;;;;;5087316;28;19924;-54
2022/01/09 04:13:22;;;;;;;;;;;20.00;40.80;;;;;;5096973;28;20574;-52
2022/01/09 04:15:49;;;;;;;;;;;20.00;40.80;;;;;;5098948;28;19927;-46
2022/01/09 04:18:18;;;;;;;;;;;20.00;40.80;;;;;;5091846;28;19991;-53
2022/01/09 04:20:45;;;;;;;;;;;20.00;40.80;;;;;;5116772;28;19936;-56
2022/01/09 04:23:12;;;;;;;;;;;20.00;40.80;;;;;;5115489;28;20010;-51
2022/01/09 04:25:39;;;;;;;;;;;20.00;40.80;;;;;;5118346;27;20538;-45
2022/01/09 04:28:09;;;;;;;;;;;20.00;40.80;;;;;;5098585;28;19927;-54
2022/01/09 04:30:36;;;;;;;;;;;20.00;40.80;;;;;;5098567;28;20002;-55
2022/01/09 04:33:03;;;;;;;;;;;20.00;40.80;;;;;;5098224;28;19928;-46
2022/01/09 04:35:32;;;;;;;;;;;20.00;40.80;;;;;;5098933;28;20295;-46
2022/01/09 04:37:58;;;;;;;;;;;20.00;40.80;;;;;;5098018;28;19962;-47
2022/01/09 04:40:25;;;;;;;;;;;20.00;40.80;;;;;;5098163;28;19924;-47
2022/01/09 04:42:54;;;;;;;;;;;20.00;40.80;;;;;;5096233;28;19924;-56
2022/01/09 04:45:23;;;;;;;;;;;20.00;40.70;;;;;;5116496;28;19924;-46
2022/01/09 04:47:51;;;;;;;;;;;20.00;40.80;;;;;;5097379;28;19999;-51
2022/01/09 04:50:23;;;;;;;;;;;20.00;40.70;;;;;;5094762;28;19934;-53
2022/01/09 04:52:53;;;;;;;;;;;20.00;40.70;;;;;;5121840;27;20270;-50
2022/01/09 04:55:20;;;;;;;;;;;20.00;40.80;;;;;;5098822;28;19938;-46
2022/01/09 04:57:47;;;;;;;;;;;20.00;40.80;;;;;;5097656;28;19924;-49
2022/01/09 05:00:14;;;;;;;;;;;20.00;40.70;;;;;;5103776;28;19928;-53
2022/01/09 05:02:41;;;;;;;;;;;20.00;40.70;;;;;;5096494;28;19923;-55
2022/01/09 05:05:08;;;;;;;;;;;20.00;40.80;;;;;;5097150;28;19959;-46
2022/01/09 05:07:35;;;;;;;;;;;20.00;40.70;;;;;;5123021;27;20395;-48
2022/01/09 05:10:03;;;;;;;;;;;20.00;40.70;;;;;;5095420;28;19927;-52
2022/01/09 05:12:30;;;;;;;;;;;20.00;40.70;;;;;;5098402;28;20506;-48
2022/01/09 05:14:57;;;;;;;;;;;20.00;40.70;;;;;;5095519;28;20412;-55
2022/01/09 05:17:24;;;;;;;;;;;20.00;40.70;;;;;;5096977;28;20030;-47
2022/01/09 05:19:52;;;;;;;;;;;20.00;40.70;;;;;;5093877;28;19923;-54
2022/01/09 05:22:19;;;;;;;;;;;20.00;40.70;;;;;;5096929;28;19930;-54
2022/01/09 05:24:46;;;;;;;;;;;20.00;40.70;;;;;;5115160;28;19993;-47
2022/01/09 05:27:14;;;;;;;;;;;20.00;40.70;;;;;;5110844;28;19931;-55
2022/01/09 05:29:41;;;;;;;;;;;20.00;40.70;;;;;;5095197;28;19931;-51
2022/01/09 05:32:08;;;;;;;;;;;20.00;41.10;;;;;;5113980;28;20002;-46
2022/01/09 05:34:37;;;;;;;;;;;20.00;40.70;;;;;;5095607;28;20362;-48
2022/01/09 05:37:04;;;;;;;;;;;20.00;40.70;;;;;;5097067;28;19931;-48
2022/01/09 05:39:31;;;;;;;;;;;20.00;40.70;;;;;;5110140;28;19995;-56
2022/01/09 05:41:59;;;;;;;;;;;20.00;40.60;;;;;;5095986;28;19963;-47
2022/01/09 05:44:27;;;;;;;;;;;20.00;40.60;;;;;;5091564;28;19977;-51
2022/01/09 05:46:54;;;;;;;;;;;20.00;40.60;;;;;;5091626;28;20663;-50
2022/01/09 05:49:20;;;;;;;;;;;20.00;40.60;;;;;;5096186;28;19927;-47
2022/01/09 05:51:47;;;;;;;;;;;20.00;40.60;;;;;;5127171;27;19982;-57
2022/01/09 05:54:14;;;;;;;;;;;20.00;40.60;;;;;;5112068;28;19928;-56
2022/01/09 05:56:41;;;;;;;;;;;20.00;40.70;;;;;;5122020;28;19923;-48
2022/01/09 05:59:08;;;;;;;;;;;20.00;40.60;;;;;;5114405;28;20422;-50
2022/01/09 06:01:36;;;;;;;;;;;20.00;40.60;;;;;;5091224;28;19974;-52
2022/01/09 06:04:05;;;;;;;;;;;20.00;40.60;;;;;;5092691;28;19931;-48
2022/01/09 06:06:32;;;;;;;;;;;20.00;40.60;;;;;;5076405;28;19963;-54
2022/01/09 06:08:59;;;;;;;;;;;20.00;40.60;;;;;;5094778;28;19923;-47
2022/01/09 06:11:25;;;;;;;;;;;20.00;40.60;;;;;;5094700;28;19932;-47
2022/01/09 06:13:52;;;;;;;;;;;20.00;40.60;;;;;;5111217;28;20368;-55
2022/01/09 06:16:19;;;;;;;;;;;20.00;40.60;;;;;;5112737;28;19928;-46
2022/01/09 06:18:48;;;;;;;;;;;20.00;40.60;;;;;;5095384;28;19939;-55
2022/01/09 06:21:14;;;;;;;;;;;20.00;40.60;;;;;;5094991;28;20342;-46
2022/01/09 06:23:41;;;;;;;;;;;20.00;40.60;;;;;;5115491;28;19953;-55
2022/01/09 06:26:08;;;;;;;;;;;20.00;40.60;;;;;;5099641;28;19928;-47
2022/01/09 06:28:35;;;;;;;;;;;20.00;40.60;;;;;;5119170;28;19923;-49
2022/01/09 06:31:02;;;;;;;;;;;20.00;40.60;;;;;;5101634;28;19963;-50
2022/01/09 06:33:28;;;;;;;;;;;20.00;40.60;;;;;;5099704;28;19935;-55
2022/01/09 06:35:57;;;;;;;;;;;20.00;40.60;;;;;;5100139;28;19928;-49
2022/01/09 06:38:23;;;;;;;;;;;20.00;40.60;;;;;;5100737;28;19951;-48
2022/01/09 06:40:50;;;;;;;;;;;20.00;40.60;;;;;;5101440;28;19928;-51
2022/01/09 06:43:17;;;;;;;;;;;20.00;40.60;;;;;;5117578;28;19927;-53
2022/01/09 06:45:44;;;;;;;;;;;20.00;40.60;;;;;;5099319;28;19924;-56
2022/01/09 06:48:10;;;;;;;;;;;20.00;40.60;;;;;;5100631;28;20289;-54
2022/01/09 06:50:39;;;;;;;;;;;20.00;40.60;;;;;;5098096;28;20022;-50
2022/01/09 06:53:08;;;;;;;;;;;19.90;40.40;;;;;;5125718;27;20321;-47
2022/01/09 06:55:34;;;;;;;;;;;20.00;40.50;;;;;;5096873;28;19928;-45
2022/01/09 06:58:01;;;;;;;;;;;20.00;40.50;;;;;;5118205;28;19931;-55
2022/01/09 07:00:28;;;;;;;;;;;20.00;40.50;;;;;;5128456;27;19920;-56
2022/01/09 07:02:55;;;;;;;;;;;20.00;40.50;;;;;;5097705;28;19950;-49
2022/01/09 07:05:22;;;;;;;;;;;19.90;40.50;;;;;;5099691;28;19955;-50
2022/01/09 07:07:48;;;;;;;;;;;20.00;40.50;;;;;;5098157;28;19935;-46
2022/01/09 07:10:18;;;;;;;;;;;20.00;40.60;;;;;;5099919;28;19966;-45
2022/01/09 07:12:45;;;;;;;;;;;20.00;40.50;;;;;;5118166;28;19928;-51
2022/01/09 07:15:11;;;;;;;;;;;19.90;40.40;;;;;;5119438;28;19978;-55
2022/01/09 07:17:38;;;;;;;;;;;19.90;40.40;;;;;;5116071;28;19935;-47
2022/01/09 07:20:05;;;;;;;;;;;20.00;40.50;;;;;;5101152;28;19966;-45
2022/01/09 07:22:32;;;;;;;;;;;19.90;40.40;;;;;;5095491;28;19924;-47
2022/01/09 07:24:59;;;;;;;;;;;19.90;40.40;;;;;;5123476;27;20292;-44
2022/01/09 07:27:27;;;;;;;;;;;19.90;40.40;;;;;;5097002;28;20373;-52
2022/01/09 07:29:54;;;;;;;;;;;19.90;40.40;;;;;;5097257;28;20518;-53
2022/01/09 07:32:21;;;;;;;;;;;19.90;40.40;;;;;;5096487;28;19924;-48
2022/01/09 07:34:49;;;;;;;;;;;19.90;40.40;;;;;;5096347;28;19932;-47
2022/01/09 07:37:16;;;;;;;;;;;19.90;40.40;;;;;;5097487;28;19924;-46
2022/01/09 07:39:42;;;;;;;;;;;19.90;40.40;;;;;;5097175;28;19951;-47
2022/01/09 07:42:12;;;;;;;;;;;19.90;40.40;;;;;;5096965;28;20358;-55
2022/01/09 07:44:40;;;;;;;;;;;19.90;40.40;;;;;;5092813;28;19934;-52
2022/01/09 07:47:07;;;;;;;;;;;19.90;40.30;;;;;;5098475;28;19939;-52
2022/01/09 07:49:34;;;;;;;;;;;19.90;40.30;;;;;;5092787;28;19924;-49
2022/01/09 07:52:00;;;;;;;;;;;20.00;40.50;;;;;;5098447;28;19923;-46
2022/01/09 07:54:27;;;;;;;;;;;20.00;40.40;;;;;;5116866;28;20585;-52
2022/01/09 07:56:54;;;;;;;;;;;20.00;40.40;;;;;;5116089;28;20417;-53
2022/01/09 07:59:20;;;;;;;;;;;19.90;40.30;;;;;;5097255;28;19928;-46
2022/01/09 08:01:49;;;;;;;;;;;19.90;40.30;;;;;;5097759;28;19935;-54
2022/01/09 08:04:16;;;;;;;;;;;19.90;40.30;;;;;;5096622;28;19923;-45
2022/01/09 08:06:43;;;;;;;;;;;19.90;40.30;;;;;;5096984;28;19934;-54
2022/01/09 08:09:10;;;;;;;;;;;19.90;40.30;;;;;;5092017;28;20368;-55
2022/01/09 08:11:37;;;;;;;;;;;19.90;40.30;;;;;;5095999;28;19928;-53
2022/01/09 08:14:04;;;;;;;;;;;20.00;40.40;;;;;;5094835;28;19924;-50
2022/01/09 08:16:30;;;;;;;;;;;19.90;40.30;;;;;;5112447;28;19981;-48
2022/01/09 08:18:58;;;;;;;;;;;19.90;40.30;;;;;;5095916;28;19924;-47
2022/01/09 08:21:26;;;;;;;;;;;19.90;40.30;;;;;;5095723;28;20404;-53
2022/01/09 08:23:52;;;;;;;;;;;20.00;40.40;;;;;;5111092;28;19922;-52
2022/01/09 08:26:19;;;;;;;;;;;20.00;40.40;;;;;;5096359;28;19928;-49
2022/01/09 08:28:48;;;;;;;;;;;20.00;40.40;;;;;;5123737;27;19923;-50
2022/01/09 08:31:14;;;;;;;;;;;19.90;40.30;;;;;;5111725;28;19981;-50
2022/01/09 08:33:41;;;;;;;;;;;19.90;40.30;;;;;;5096622;28;19932;-55
2022/01/09 08:36:10;;;;;;;;;;;19.90;40.30;;;;;;5095267;28;19988;-56
2022/01/09 08:38:37;;;;;;;;;;;19.90;40.30;;;;;;5113241;28;19948;-49
2022/01/09 08:41:04;;;;;;;;;;;19.90;40.30;;;;;;5092422;28;19928;-52
2022/01/09 08:43:31;;;;;;;;;;;19.90;40.20;;;;;;5095051;28;19977;-45
2022/01/09 08:45:58;;;;;;;;;;;19.90;40.20;;;;;;5093482;28;20517;-45
2022/01/09 08:48:25;;;;;;;;;;;19.90;40.30;;;;;;5091650;28;19985;-54
2022/01/09 08:50:51;;;;;;;;;;;19.90;40.20;;;;;;5109891;28;20022;-47
2022/01/09 08:53:20;;;;;;;;;;;19.90;40.30;;;;;;5091209;28;20357;-52
2022/01/09 08:55:47;;;;;;;;;;;20.00;40.40;;;;;;5089507;28;19946;-49
2022/01/09 08:58:13;;;;;;;;;;;20.00;40.40;;;;;;5110210;28;19930;-50
2022/01/09 09:00:40;;;;;;;;;;;19.90;40.20;;;;;;5093939;28;19999;-55
2022/01/09 09:03:07;;;;;;;;;;;20.00;40.40;;;;;;5095112;28;19935;-52
2022/01/09 09:05:34;;;;;;;;;;;20.00;40.40;;;;;;5112165;28;20521;-48
2022/01/09 09:08:03;;;;;;;;;;;20.00;40.40;;;;;;5119854;27;20330;-49
2022/01/09 09:10:31;;;;;;;;;;;20.00;40.40;;;;;;5094052;28;19959;-45
2022/01/09 09:12:58;;;;;;;;;;;20.00;40.30;;;;;;5092792;28;20022;-54
2022/01/09 09:15:25;;;;;;;;;;;20.00;40.40;;;;;;5092927;28;20018;-54
2022/01/09 09:17:52;;;;;;;;;;;20.00;40.30;;;;;;5111764;28;19928;-49
2022/01/09 09:20:19;;;;;;;;;;;19.90;40.20;;;;;;5093769;28;19923;-50
2022/01/09 09:22:46;;;;;;;;;;;20.00;40.30;;;;;;5122104;27;20011;-45
2022/01/09 09:25:13;;;;;;;;;;;20.00;40.30;;;;;;5094031;28;20049;-45
2022/01/09 09:27:42;;;;;;;;;;;20.00;40.30;;;;;;5088267;28;19931;-51
2022/01/09 09:30:10;;;;;;;;;;;20.00;40.30;;;;;;5094141;28;20338;-46
2022/01/09 09:32:38;;;;;;;;;;;19.90;40.20;;;;;;5092165;28;19984;-45
2022/01/09 09:35:05;;;;;;;;;;;20.00;40.30;;;;;;5110590;28;19970;-45
2022/01/09 09:37:32;;;;;;;;;;;20.00;40.30;;;;;;5113571;28;19931;-54
2022/01/09 09:39:58;;;;;;;;;;;20.00;40.30;;;;;;5095163;28;20020;-53
2022/01/09 09:42:25;;;;;;;;;;;19.90;40.20;;;;;;5089733;28;19928;-53
2022/01/09 09:44:54;;;;;;;;;;;20.00;40.30;;;;;;5093390;28;20023;-45
2022/01/09 09:47:21;;;;;;;;;;;20.00;40.30;;;;;;5089855;28;19923;-48
2022/01/09 09:49:48;;;;;;;;;;;20.00;40.30;;;;;;5089255;28;20010;-51
2022/01/09 09:52:18;;;;;;;;;;;20.00;40.30;;;;;;5095124;28;19934;-51
2022/01/09 09:54:45;;;;;;;;;;;20.00;40.30;;;;;;5110745;28;19996;-49
2022/01/09 09:57:11;;;;;;;;;;;20.00;40.30;;;;;;5073789;28;19928;-49
2022/01/09 09:59:38;;;;;;;;;;;20.00;40.30;;;;;;5085177;28;20320;-47
2022/01/09 10:02:10;;;;;;;;;;;20.00;40.30;;;;;;5095070;28;20353;-48
2022/01/09 10:04:37;;;;;;;;;;;20.00;40.30;;;;;;5085010;28;19930;-51
2022/01/09 10:07:04;;;;;;;;;;;20.00;40.30;;;;;;5130679;28;19997;-49
2022/01/09 10:09:32;;;;;;;;;;;20.00;40.40;;;;;;5094551;28;19927;-45
2022/01/09 10:12:01;;;;;;;;;;;20.00;40.30;;;;;;5127036;27;19947;-50
2022/01/09 10:14:28;;;;;;;;;;;20.00;40.40;;;;;;5094146;28;19924;-54
2022/01/09 10:17:13;;;;;;;;;;;20.00;40.40;;;;;;5092627;28;19977;-52
2022/01/09 10:19:50;;;;;;;;;;;20.00;40.40;;;;;;5107915;28;19924;-46
2022/01/09 10:22:27;;;;;;;;;;;20.00;40.40;;;;;;5083778;28;19968;-53
2022/01/09 10:24:55;;;;;;;;;;;20.00;40.30;;;;;;5111465;28;19947;-45
2022/01/09 10:27:29;;;;;;;;;;;20.00;40.40;;;;;;5083859;28;19932;-52
2022/01/09 10:29:58;;;;;;;;;;;20.00;40.40;;;;;;5082307;28;19924;-50
2022/01/09 10:32:27;;;;;;;;;;;20.00;40.40;;;;;;5095472;28;19949;-49
2022/01/09 10:35:07;;;;;;;;;;;20.00;40.40;;;;;;5102709;28;19999;-53
2022/01/09 10:37:35;;;;;;;;;;;20.00;40.40;;;;;;5107306;28;19923;-45
2022/01/09 10:40:02;;;;;;;;;;;20.00;40.40;;;;;;5095971;28;20003;-49
2022/01/09 10:42:28;;;;;;;;;;;20.00;40.40;;;;;;5105211;28;20018;-56
2022/01/09 10:44:55;;;;;;;;;;;20.00;40.40;;;;;;5094443;28;20002;-48
2022/01/09 10:47:22;;;;;;;;;;;20.00;40.40;;;;;;5072490;28;19931;-53
2022/01/09 10:49:51;;;;;;;;;;;20.00;40.40;;;;;;5080208;28;19938;-48
2022/01/09 10:52:19;;;;;;;;;;;20.00;40.40;;;;;;5098150;28;19935;-55
2022/01/09 10:54:47;;;;;;;;;;;20.00;40.40;;;;;;5088818;28;19924;-53
2022/01/09 10:57:15;;;;;;;;;;;20.00;40.40;;;;;;5096293;28;19928;-47
2022/01/09 10:59:42;;;;;;;;;;;20.00;40.40;;;;;;5092160;28;19982;-43
2022/01/09 11:02:12;;;;;;;;;;;20.00;40.50;;;;;;5092079;28;19932;-44
2022/01/09 11:04:39;;;;;;;;;;;20.00;40.50;;;;;;5105734;28;20509;-44
2022/01/09 11:07:08;;;;;;;;;;;20.00;40.50;;;;;;5091150;28;19946;-48
2022/01/09 11:09:35;;;;;;;;;;;20.00;40.50;;;;;;5103472;27;19923;-43
2022/01/09 11:12:03;;;;;;;;;;;20.00;40.40;;;;;;5121815;27;19984;-47
2022/01/09 11:14:34;;;;;;;;;;;20.00;40.40;;;;;;5093381;27;19928;-43
2022/01/09 11:17:02;;;;;;;;;;;20.00;40.40;;;;;;5093529;28;19972;-45
2022/01/09 11:19:28;;;;;;;;;;;20.00;40.30;;;;;;5085710;28;20006;-42
2022/01/09 11:21:59;;;;;;;;;;;20.00;40.30;;;;;;5092966;28;19967;-42
2022/01/09 11:24:50;;;;;;;;;;;20.00;40.30;;;;;;5082748;28;19992;-44
2022/01/09 11:27:22;;;;;;;;;;;20.00;40.20;;;;;;5100267;28;19936;-44
2022/01/09 11:29:52;;;;;;;;;;;20.00;40.20;;;;;;5108322;28;19976;-43
2022/01/09 11:32:22;;;;;;;;;;;20.00;40.10;;;;;;5080711;28;20548;-44
2022/01/09 11:34:51;;;;;;;;;;;20.00;40.00;;;;;;5084809;28;19999;-44
2022/01/09 11:37:25;;;;;;;;;;;20.00;40.00;;;;;;5110979;28;19935;-45
2022/01/09 11:39:52;;;;;;;;;;;20.00;40.00;;;;;;5123982;27;20407;-48
2022/01/09 11:42:20;;;;;;;;;;;20.00;40.00;;;;;;5115390;28;19920;-44
2022/01/09 11:44:47;;;;;;;;;;;20.00;40.10;;;;;;5096806;28;19949;-45
2022/01/09 11:47:13;;;;;;;;;;;20.00;40.20;;;;;;5092732;28;19924;-45
2022/01/09 11:49:40;;;;;;;;;;;20.00;40.20;;;;;;5104446;27;20458;-42
2022/01/09 11:52:10;;;;;;;;;;;20.00;40.20;;;;;;5095870;28;19927;-46
2022/01/09 11:54:47;;;;;;;;;;;20.00;40.30;;;;;;5085043;28;20038;-42
2022/01/09 11:57:18;;;;;;;;;;;20.00;40.30;;;;;;5098106;28;19942;-49
2022/01/09 11:59:51;;;;;;;;;;;20.10;40.40;;;;;;5095546;28;19934;-51
2022/01/09 12:02:45;;;;;;;;;;;20.10;40.50;;;;;;5083994;28;19934;-47
2022/01/09 12:05:12;;;;;;;;;;;20.10;40.50;;;;;;5080100;28;20326;-43
2022/01/09 12:08:04;;;;;;;;;;;20.10;40.60;;;;;;5103181;28;19938;-42
2022/01/09 12:10:41;;;;;;;;;;;20.10;40.60;;;;;;5073850;28;20331;-42
2022/01/09 12:13:25;;;;;;;;;;;20.10;40.70;;;;;;5111777;28;19935;-45
2022/01/09 12:15:53;;;;;;;;;;;20.10;40.70;;;;;;5104751;28;19992;-45
2022/01/09 12:18:42;;;;;;;;;;;20.10;40.80;;;;;;5094442;28;19963;-48
2022/01/09 12:21:09;;;;;;;;;;;20.10;40.80;;;;;;5112478;28;19928;-48
2022/01/09 12:23:36;;;;;;;;;;;20.10;40.90;;;;;;5119983;27;19930;-46
2022/01/09 12:26:03;;;;;;;;;;;20.20;41.20;;;;;;5092666;28;20026;-44
2022/01/09 12:28:48;;;;;;;;;;;20.20;41.50;;;;;;5092661;28;20314;-44
2022/01/09 12:31:24;;;;;;;;;;;20.20;41.50;;;;;;5085816;28;19928;-49
2022/01/09 12:33:51;;;;;;;;;;;20.20;41.50;;;;;;5072131;28;19959;-51
2022/01/09 12:36:22;;;;;;;;;;;20.20;41.50;;;;;;5104662;28;19927;-51
2022/01/09 12:38:55;;;;;;;;;;;20.20;41.50;;;;;;5097840;28;19928;-44
2022/01/09 12:41:25;;;;;;;;;;;20.20;41.60;;;;;;5108353;28;19928;-53
2022/01/09 12:43:58;;;;;;;;;;;20.20;41.60;;;;;;5091026;28;19932;-47
2022/01/09 12:46:26;;;;;;;;;;;20.20;41.50;;;;;;5086023;28;20235;-47
2022/01/09 12:48:53;;;;;;;;;;;20.20;41.50;;;;;;5093458;28;20021;-49
2022/01/09 12:51:20;;;;;;;;;;;20.20;41.50;;;;;;5122955;27;19927;-49
2022/01/09 12:53:52;;;;;;;;;;;20.20;41.50;;;;;;5087418;28;20401;-47
2022/01/09 12:56:20;;;;;;;;;;;20.20;41.50;;;;;;5088625;28;19930;-50
2022/01/09 12:58:47;;;;;;;;;;;20.20;41.50;;;;;;5089939;28;20115;-53
2022/01/09 13:01:19;;;;;;;;;;;20.20;41.50;;;;;;5086066;28;19970;-48
2022/01/09 13:03:47;;;;;;;;;;;20.20;41.50;;;;;;5098666;28;19950;-43
2022/01/09 13:06:14;;;;;;;;;;;20.20;41.50;;;;;;5089801;28;19927;-44
2022/01/09 13:08:42;;;;;;;;;;;20.20;41.50;;;;;;5079019;28;19928;-50
2022/01/09 13:11:09;;;;;;;;;;;20.20;41.50;;;;;;5084097;28;19968;-47
2022/01/09 13:13:36;;;;;;;;;;;20.20;41.50;;;;;;5088768;28;19939;-49
2022/01/09 13:16:09;;;;;;;;;;;20.20;42.10;;;;;;5084524;28;20365;-44
2022/01/09 13:18:36;;;;;;;;;;;20.20;41.50;;;;;;5119636;27;20008;-51
2022/01/09 13:21:14;;;;;;;;;;;20.20;41.50;;;;;;5116245;27;19928;-47
2022/01/09 13:23:59;;;;;;;;;;;20.20;41.50;;;;;;5106191;28;20523;-51
2022/01/09 13:26:27;;;;;;;;;;;20.20;41.40;;;;;;5081937;28;19923;-50
2022/01/09 13:28:54;;;;;;;;;;;20.20;41.40;;;;;;5084902;28;20296;-45
2022/01/09 13:31:22;;;;;;;;;;;20.20;41.40;;;;;;5089263;28;19931;-42
2022/01/09 13:33:50;;;;;;;;;;;20.20;41.40;;;;;;5074784;28;19935;-46
2022/01/09 13:36:32;;;;;;;;;;;20.20;41.40;;;;;;5088960;28;20587;-48
2022/01/09 13:38:59;;;;;;;;;;;20.20;41.40;;;;;;5087721;28;19928;-47
2022/01/09 13:41:29;;;;;;;;;;;20.20;41.40;;;;;;5100787;28;20425;-50
2022/01/09 13:43:55;;;;;;;;;;;20.20;41.40;;;;;;5090950;28;20015;-43
2022/01/09 13:46:23;;;;;;;;;;;20.20;41.40;;;;;;5088469;28;19930;-46
2022/01/09 13:48:50;;;;;;;;;;;20.20;41.40;;;;;;5083388;28;20348;-46
2022/01/09 13:51:17;;;;;;;;;;;20.20;41.40;;;;;;5090684;28;20011;-45
2022/01/09 13:53:58;;;;;;;;;;;20.20;41.50;;;;;;5094290;28;19942;-49
2022/01/09 13:56:27;;;;;;;;;;;20.20;41.50;;;;;;5083763;28;19931;-50
2022/01/09 13:58:55;;;;;;;;;;;20.20;41.50;;;;;;5086490;28;19940;-50
2022/01/09 14:01:37;;;;;;;;;;;20.20;41.50;;;;;;5090041;28;19962;-46
2022/01/09 14:04:10;;;;;;;;;;;20.20;42.10;;;;;;5095946;28;19930;-46
2022/01/09 14:06:37;;;;;;;;;;;20.20;41.50;;;;;;5090437;28;19962;-47
2022/01/09 14:09:04;;;;;;;;;;;20.30;41.50;;;;;;5090474;28;19938;-45
2022/01/09 14:11:32;;;;;;;;;;;20.20;41.50;;;;;;5083054;28;19963;-51
2022/01/09 14:13:58;;;;;;;;;;;20.20;41.50;;;;;;5091031;28;19927;-46
2022/01/09 14:16:25;;;;;;;;;;;20.30;41.50;;;;;;5086286;28;19958;-44
2022/01/09 14:18:55;;;;;;;;;;;20.30;41.60;;;;;;5071833;28;19927;-46
2022/01/09 14:21:22;;;;;;;;;;;20.30;41.60;;;;;;5083907;28;19934;-48
2022/01/09 14:23:48;;;;;;;;;;;20.30;42.20;;;;;;5111778;28;19947;-51
2022/01/09 14:26:16;;;;;;;;;;;20.30;41.60;;;;;;5091308;28;19963;-45